createdAt,value
2017-03-05T00:00:29.348Z,988.32
2017-03-05T00:01:10.016Z,988.31
2017-03-05T00:01:50.644Z,988.38
2017-03-05T00:02:31.272Z,988.37
2017-03-05T00:03:11.939Z,988.39
2017-03-05T00:03:52.581Z,988.37
2017-03-05T00:04:33.187Z,988.41
2017-03-05T00:05:13.899Z,988.38
2017-03-05T00:05:54.486Z,988.43
2017-03-05T00:06:35.105Z,988.43
2017-03-05T00:07:15.735Z,988.41
2017-03-05T00:07:56.372Z,988.45
2017-03-05T00:08:36.987Z,988.45
2017-03-05T00:09:17.634Z,988.46
2017-03-05T00:09:58.266Z,988.47
2017-03-05T00:10:38.855Z,988.47
2017-03-05T00:11:19.484Z,988.52
2017-03-05T00:12:00.107Z,988.51
2017-03-05T00:12:40.743Z,988.52
2017-03-05T00:13:21.386Z,988.55
2017-03-05T00:14:02.034Z,988.54
2017-03-05T00:14:42.674Z,988.56
2017-03-05T00:15:23.256Z,988.56
2017-03-05T00:16:03.918Z,988.55
2017-03-05T00:16:44.557Z,988.57
2017-03-05T00:17:25.160Z,988.56
2017-03-05T00:18:05.820Z,988.56
2017-03-05T00:18:46.475Z,988.57
2017-03-05T00:19:27.082Z,988.54
2017-03-05T00:20:07.695Z,988.55
2017-03-05T00:20:48.320Z,988.57
2017-03-05T00:21:28.986Z,988.61
2017-03-05T00:22:09.664Z,988.62
2017-03-05T00:22:50.306Z,988.59
2017-03-05T00:23:31.012Z,988.64
2017-03-05T00:24:11.624Z,988.65
2017-03-05T00:24:52.288Z,988.63
2017-03-05T00:25:32.926Z,988.63
2017-03-05T00:26:13.558Z,988.67
2017-03-05T00:26:54.319Z,988.72
2017-03-05T00:27:34.900Z,988.66
2017-03-05T00:28:15.533Z,988.7
2017-03-05T00:28:56.139Z,988.75
2017-03-05T00:29:36.793Z,988.74
2017-03-05T00:30:17.443Z,988.72
2017-03-05T00:30:58.064Z,988.76
2017-03-05T00:31:38.712Z,988.71
2017-03-05T00:32:19.347Z,988.68
2017-03-05T00:32:59.983Z,988.71
2017-03-05T00:33:40.604Z,988.68
2017-03-05T00:34:21.231Z,988.71
2017-03-05T00:35:01.854Z,988.7
2017-03-05T00:35:42.508Z,988.71
2017-03-05T00:36:23.398Z,988.76
2017-03-05T00:37:03.825Z,988.76
2017-03-05T00:37:44.470Z,988.82
2017-03-05T00:38:25.118Z,988.85
2017-03-05T00:39:06.066Z,988.86
2017-03-05T00:39:46.694Z,988.85
2017-03-05T00:40:27.372Z,988.89
2017-03-05T00:41:08.047Z,988.91
2017-03-05T00:41:48.699Z,988.93
2017-03-05T00:42:29.299Z,988.96
2017-03-05T00:43:09.924Z,989
2017-03-05T00:43:50.585Z,989.05
2017-03-05T00:44:31.214Z,989.03
2017-03-05T00:45:11.929Z,989.09
2017-03-05T00:45:52.716Z,989.13
2017-03-05T00:46:33.341Z,989.11
2017-03-05T00:47:14.080Z,989.06
2017-03-05T00:47:54.632Z,989.12
2017-03-05T00:48:35.318Z,989.05
2017-03-05T00:49:15.927Z,989.14
2017-03-05T00:49:56.597Z,989.13
2017-03-05T00:50:37.225Z,989.11
2017-03-05T00:51:17.884Z,989.12
2017-03-05T00:51:58.509Z,989.14
2017-03-05T00:52:39.169Z,989.17
2017-03-05T00:53:19.814Z,989.19
2017-03-05T00:54:00.486Z,989.17
2017-03-05T00:54:41.185Z,989.16
2017-03-05T00:55:21.804Z,989.15
2017-03-05T00:56:02.393Z,989.17
2017-03-05T00:56:43.000Z,989.11
2017-03-05T00:57:23.647Z,989.11
2017-03-05T00:58:04.285Z,989.12
2017-03-05T00:58:44.936Z,989.08
2017-03-05T00:59:25.570Z,989.08
2017-03-05T01:00:06.229Z,989.09
2017-03-05T01:00:46.877Z,989.15
2017-03-05T01:01:27.500Z,989.24
2017-03-05T01:02:08.156Z,989.26
2017-03-05T01:02:48.785Z,989.3
2017-03-05T01:03:29.397Z,989.34
2017-03-05T01:04:09.995Z,989.33
2017-03-05T01:04:50.622Z,989.31
2017-03-05T01:05:31.261Z,989.35
2017-03-05T01:06:11.847Z,989.38
2017-03-05T01:06:52.470Z,989.41
2017-03-05T01:07:33.116Z,989.42
2017-03-05T01:08:13.773Z,989.44
2017-03-05T01:08:54.415Z,989.43
2017-03-05T01:09:35.082Z,989.42
2017-03-05T01:10:15.654Z,989.48
2017-03-05T01:10:56.318Z,989.44
2017-03-05T01:11:36.943Z,989.39
2017-03-05T01:12:17.617Z,989.41
2017-03-05T01:12:58.251Z,989.41
2017-03-05T01:13:38.876Z,989.36
2017-03-05T01:14:19.479Z,989.41
2017-03-05T01:15:00.143Z,989.39
2017-03-05T01:15:40.764Z,989.35
2017-03-05T01:16:21.406Z,989.39
2017-03-05T01:17:01.992Z,989.37
2017-03-05T01:17:42.628Z,989.37
2017-03-05T01:18:23.232Z,989.37
2017-03-05T01:19:03.985Z,989.36
2017-03-05T01:19:44.597Z,989.42
2017-03-05T01:20:25.559Z,989.49
2017-03-05T01:21:06.299Z,989.45
2017-03-05T01:21:46.808Z,989.47
2017-03-05T01:22:27.603Z,989.46
2017-03-05T01:23:08.213Z,989.47
2017-03-05T01:23:48.850Z,989.52
2017-03-05T01:24:29.458Z,989.48
2017-03-05T01:25:10.028Z,989.52
2017-03-05T01:25:50.680Z,989.48
2017-03-05T01:26:31.261Z,989.46
2017-03-05T01:27:11.922Z,989.53
2017-03-05T01:27:52.541Z,989.54
2017-03-05T01:28:33.168Z,989.59
2017-03-05T01:29:13.860Z,989.59
2017-03-05T01:29:54.435Z,989.6
2017-03-05T01:30:35.050Z,989.54
2017-03-05T01:31:15.685Z,989.62
2017-03-05T01:31:56.317Z,989.66
2017-03-05T01:32:36.940Z,989.63
2017-03-05T01:33:17.597Z,989.62
2017-03-05T01:33:58.269Z,989.68
2017-03-05T01:34:38.921Z,989.65
2017-03-05T01:35:19.580Z,989.68
2017-03-05T01:36:00.225Z,989.67
2017-03-05T01:36:40.872Z,989.67
2017-03-05T01:37:21.530Z,989.72
2017-03-05T01:38:02.168Z,989.69
2017-03-05T01:38:42.797Z,989.69
2017-03-05T01:39:23.489Z,989.73
2017-03-05T01:40:04.128Z,989.71
2017-03-05T01:40:44.727Z,989.73
2017-03-05T01:41:25.360Z,989.74
2017-03-05T01:42:05.986Z,989.76
2017-03-05T01:42:46.605Z,989.78
2017-03-05T01:43:27.276Z,989.79
2017-03-05T01:44:07.960Z,989.8
2017-03-05T01:44:48.606Z,989.76
2017-03-05T01:45:29.215Z,989.78
2017-03-05T01:46:09.828Z,989.82
2017-03-05T01:46:50.449Z,989.86
2017-03-05T01:47:31.115Z,989.79
2017-03-05T01:48:11.761Z,989.78
2017-03-05T01:48:52.367Z,989.76
2017-03-05T01:49:33.031Z,989.78
2017-03-05T01:50:13.803Z,989.78
2017-03-05T01:50:54.472Z,989.8
2017-03-05T01:51:35.245Z,989.73
2017-03-05T01:52:15.871Z,989.76
2017-03-05T01:52:56.545Z,989.75
2017-03-05T01:53:37.325Z,989.76
2017-03-05T01:54:18.085Z,989.8
2017-03-05T01:54:58.763Z,989.68
2017-03-05T01:55:39.360Z,989.74
2017-03-05T01:56:20.047Z,989.74
2017-03-05T01:57:00.744Z,989.76
2017-03-05T01:57:41.315Z,989.78
2017-03-05T01:58:21.934Z,989.77
2017-03-05T01:59:02.516Z,989.82
2017-03-05T01:59:43.209Z,989.77
2017-03-05T02:00:23.810Z,989.8
2017-03-05T02:01:04.428Z,989.77
2017-03-05T02:01:45.191Z,989.81
2017-03-05T02:02:25.661Z,989.82
2017-03-05T02:03:06.282Z,989.85
2017-03-05T02:03:46.942Z,989.88
2017-03-05T02:04:27.567Z,989.85
2017-03-05T02:05:08.278Z,989.87
2017-03-05T02:05:48.873Z,989.89
2017-03-05T02:06:29.478Z,989.88
2017-03-05T02:07:10.090Z,989.91
2017-03-05T02:07:50.730Z,989.93
2017-03-05T02:08:31.376Z,989.93
2017-03-05T02:09:11.956Z,989.93
2017-03-05T02:09:52.583Z,989.92
2017-03-05T02:10:33.229Z,989.98
2017-03-05T02:11:13.872Z,989.96
2017-03-05T02:11:54.500Z,990.01
2017-03-05T02:12:35.097Z,990.01
2017-03-05T02:13:15.729Z,990.05
2017-03-05T02:13:56.339Z,990.07
2017-03-05T02:14:36.971Z,990.11
2017-03-05T02:15:17.596Z,990.09
2017-03-05T02:15:58.240Z,990.15
2017-03-05T02:16:38.892Z,990.17
2017-03-05T02:17:19.548Z,990.22
2017-03-05T02:18:00.155Z,990.2
2017-03-05T02:18:40.750Z,990.28
2017-03-05T02:19:21.390Z,990.26
2017-03-05T02:20:02.042Z,990.29
2017-03-05T02:20:42.640Z,990.3
2017-03-05T02:21:23.273Z,990.31
2017-03-05T02:22:03.925Z,990.25
2017-03-05T02:22:44.516Z,990.32
2017-03-05T02:23:25.137Z,990.3
2017-03-05T02:24:05.748Z,990.28
2017-03-05T02:24:46.357Z,990.27
2017-03-05T02:25:26.975Z,990.32
2017-03-05T02:26:07.589Z,990.34
2017-03-05T02:26:48.200Z,990.33
2017-03-05T02:27:28.813Z,990.37
2017-03-05T02:28:09.449Z,990.38
2017-03-05T02:28:50.068Z,990.41
2017-03-05T02:29:30.659Z,990.38
2017-03-05T02:30:11.265Z,990.35
2017-03-05T02:30:51.879Z,990.34
2017-03-05T02:31:32.492Z,990.34
2017-03-05T02:32:13.127Z,990.31
2017-03-05T02:32:53.751Z,990.28
2017-03-05T02:33:34.374Z,990.25
2017-03-05T02:34:15.004Z,990.24
2017-03-05T02:34:55.638Z,990.17
2017-03-05T02:35:36.197Z,990.19
2017-03-05T02:36:16.797Z,990.22
2017-03-05T02:36:57.396Z,990.2
2017-03-05T02:37:38.003Z,990.17
2017-03-05T02:38:18.692Z,990.17
2017-03-05T02:38:59.317Z,990.18
2017-03-05T02:39:39.934Z,990.14
2017-03-05T02:40:20.547Z,990.17
2017-03-05T02:41:01.202Z,990.28
2017-03-05T02:41:41.800Z,990.28
2017-03-05T02:42:22.411Z,990.34
2017-03-05T02:43:03.036Z,990.36
2017-03-05T02:43:43.696Z,990.33
2017-03-05T02:44:24.283Z,990.4
2017-03-05T02:45:04.916Z,990.43
2017-03-05T02:45:45.514Z,990.39
2017-03-05T02:46:26.129Z,990.43
2017-03-05T02:47:06.715Z,990.45
2017-03-05T02:47:47.327Z,990.43
2017-03-05T02:48:27.937Z,990.45
2017-03-05T02:49:08.532Z,990.47
2017-03-05T02:49:49.116Z,990.47
2017-03-05T02:50:29.742Z,990.48
2017-03-05T02:51:10.345Z,990.52
2017-03-05T02:51:50.957Z,990.56
2017-03-05T02:52:31.570Z,990.52
2017-03-05T02:53:12.230Z,990.58
2017-03-05T02:53:52.920Z,990.6
2017-03-05T02:54:33.557Z,990.62
2017-03-05T02:55:14.232Z,990.61
2017-03-05T02:55:54.840Z,990.65
2017-03-05T02:56:35.434Z,990.64
2017-03-05T02:57:16.054Z,990.7
2017-03-05T02:57:56.700Z,990.69
2017-03-05T02:58:37.315Z,990.71
2017-03-05T02:59:17.918Z,990.7
2017-03-05T02:59:58.539Z,990.72
2017-03-05T03:00:39.168Z,990.68
2017-03-05T03:01:19.787Z,990.69
2017-03-05T03:02:00.405Z,990.68
2017-03-05T03:02:41.016Z,990.69
2017-03-05T03:03:21.646Z,990.71
2017-03-05T03:04:02.275Z,990.71
2017-03-05T03:04:42.878Z,990.71
2017-03-05T03:05:23.511Z,990.69
2017-03-05T03:06:04.138Z,990.72
2017-03-05T03:06:44.746Z,990.68
2017-03-05T03:07:25.358Z,990.66
2017-03-05T03:08:05.993Z,990.64
2017-03-05T03:08:46.623Z,990.65
2017-03-05T03:09:27.255Z,990.69
2017-03-05T03:10:07.872Z,990.67
2017-03-05T03:10:48.476Z,990.71
2017-03-05T03:11:29.080Z,990.73
2017-03-05T03:12:09.686Z,990.7
2017-03-05T03:12:50.342Z,990.64
2017-03-05T03:13:30.974Z,990.66
2017-03-05T03:14:11.595Z,990.65
2017-03-05T03:14:52.241Z,990.58
2017-03-05T03:15:32.843Z,990.57
2017-03-05T03:16:13.477Z,990.58
2017-03-05T03:16:54.094Z,990.6
2017-03-05T03:17:34.792Z,990.63
2017-03-05T03:18:15.361Z,990.71
2017-03-05T03:18:55.956Z,990.76
2017-03-05T03:19:36.560Z,990.75
2017-03-05T03:20:17.179Z,990.77
2017-03-05T03:20:57.791Z,990.82
2017-03-05T03:21:38.412Z,990.83
2017-03-05T03:22:19.053Z,990.86
2017-03-05T03:22:59.693Z,990.9
2017-03-05T03:23:40.374Z,990.93
2017-03-05T03:24:20.969Z,990.91
2017-03-05T03:25:01.571Z,990.94
2017-03-05T03:25:42.221Z,990.97
2017-03-05T03:26:22.886Z,991.01
2017-03-05T03:27:03.519Z,991.01
2017-03-05T03:27:44.163Z,991.02
2017-03-05T03:28:24.726Z,991.05
2017-03-05T03:29:05.367Z,991.07
2017-03-05T03:29:46.035Z,991.12
2017-03-05T03:30:26.666Z,991.11
2017-03-05T03:31:07.308Z,991.09
2017-03-05T03:31:47.902Z,991.15
2017-03-05T03:32:28.511Z,991.16
2017-03-05T03:33:09.149Z,991.1
2017-03-05T03:33:49.726Z,991.22
2017-03-05T03:34:30.319Z,991.22
2017-03-05T03:35:10.970Z,991.27
2017-03-05T03:35:51.573Z,991.27
2017-03-05T03:36:32.194Z,991.35
2017-03-05T03:37:12.833Z,991.32
2017-03-05T03:37:53.449Z,991.38
2017-03-05T03:38:34.080Z,991.41
2017-03-05T03:39:14.759Z,991.4
2017-03-05T03:39:55.388Z,991.4
2017-03-05T03:40:35.978Z,991.46
2017-03-05T03:41:16.619Z,991.49
2017-03-05T03:41:57.255Z,991.54
2017-03-05T03:42:37.856Z,991.58
2017-03-05T03:43:18.481Z,991.6
2017-03-05T03:43:59.133Z,991.64
2017-03-05T03:44:39.840Z,991.74
2017-03-05T03:45:20.448Z,991.75
2017-03-05T03:46:01.102Z,991.76
2017-03-05T03:46:41.744Z,991.77
2017-03-05T03:47:22.363Z,991.78
2017-03-05T03:48:02.969Z,991.82
2017-03-05T03:48:43.586Z,991.84
2017-03-05T03:49:24.167Z,991.86
2017-03-05T03:50:04.775Z,991.85
2017-03-05T03:50:45.398Z,991.88
2017-03-05T03:51:26.025Z,991.94
2017-03-05T03:52:06.665Z,991.89
2017-03-05T03:52:47.288Z,991.9
2017-03-05T03:53:27.875Z,991.98
2017-03-05T03:54:08.496Z,991.95
2017-03-05T03:54:49.103Z,991.92
2017-03-05T03:55:29.728Z,991.93
2017-03-05T03:56:10.429Z,991.93
2017-03-05T03:56:51.053Z,991.93
2017-03-05T03:57:31.687Z,991.95
2017-03-05T03:58:12.319Z,991.98
2017-03-05T03:58:52.963Z,991.97
2017-03-05T03:59:33.607Z,991.94
2017-03-05T04:00:14.197Z,992
2017-03-05T04:00:54.845Z,992.05
2017-03-05T04:01:35.463Z,992.09
2017-03-05T04:02:16.060Z,992.01
2017-03-05T04:02:56.705Z,992.04
2017-03-05T04:03:37.300Z,992.1
2017-03-05T04:04:17.919Z,992.08
2017-03-05T04:04:58.553Z,992.01
2017-03-05T04:05:39.125Z,992.07
2017-03-05T04:06:19.752Z,992.09
2017-03-05T04:07:00.404Z,992.1
2017-03-05T04:07:40.997Z,992.13
2017-03-05T04:08:21.612Z,992.17
2017-03-05T04:09:02.213Z,992.1
2017-03-05T04:09:42.832Z,992.18
2017-03-05T04:10:23.465Z,992.12
2017-03-05T04:11:04.103Z,992.13
2017-03-05T04:11:44.726Z,992.11
2017-03-05T04:12:25.367Z,992.17
2017-03-05T04:13:05.971Z,992.21
2017-03-05T04:13:46.594Z,992.23
2017-03-05T04:14:27.217Z,992.24
2017-03-05T04:15:07.867Z,992.28
2017-03-05T04:15:48.474Z,992.3
2017-03-05T04:16:29.092Z,992.29
2017-03-05T04:17:09.687Z,992.3
2017-03-05T04:17:50.311Z,992.35
2017-03-05T04:18:30.945Z,992.39
2017-03-05T04:19:11.649Z,992.36
2017-03-05T04:19:52.245Z,992.37
2017-03-05T04:20:32.891Z,992.41
2017-03-05T04:21:13.482Z,992.41
2017-03-05T04:21:54.075Z,992.44
2017-03-05T04:22:34.692Z,992.52
2017-03-05T04:23:15.298Z,992.5
2017-03-05T04:23:55.962Z,992.55
2017-03-05T04:24:36.732Z,992.54
2017-03-05T04:25:17.296Z,992.59
2017-03-05T04:25:57.905Z,992.58
2017-03-05T04:26:38.520Z,992.59
2017-03-05T04:27:19.154Z,992.61
2017-03-05T04:27:59.789Z,992.65
2017-03-05T04:28:40.447Z,992.6
2017-03-05T04:29:21.060Z,992.65
2017-03-05T04:30:01.700Z,992.64
2017-03-05T04:30:42.310Z,992.63
2017-03-05T04:31:22.962Z,992.67
2017-03-05T04:32:03.618Z,992.66
2017-03-05T04:32:44.229Z,992.7
2017-03-05T04:33:24.842Z,992.72
2017-03-05T04:34:05.472Z,992.64
2017-03-05T04:34:46.096Z,992.7
2017-03-05T04:35:26.758Z,992.64
2017-03-05T04:36:07.385Z,992.65
2017-03-05T04:36:48.041Z,992.65
2017-03-05T04:37:28.662Z,992.67
2017-03-05T04:38:09.264Z,992.62
2017-03-05T04:38:49.877Z,992.66
2017-03-05T04:39:30.467Z,992.6
2017-03-05T04:40:11.086Z,992.66
2017-03-05T04:40:51.756Z,992.62
2017-03-05T04:41:32.335Z,992.64
2017-03-05T04:42:12.968Z,992.65
2017-03-05T04:42:53.555Z,992.68
2017-03-05T04:43:34.148Z,992.68
2017-03-05T04:44:14.745Z,992.7
2017-03-05T04:44:55.346Z,992.7
2017-03-05T04:45:35.957Z,992.74
2017-03-05T04:46:16.578Z,992.77
2017-03-05T04:46:57.183Z,992.74
2017-03-05T04:47:37.762Z,992.74
2017-03-05T04:48:18.408Z,992.79
2017-03-05T04:48:59.047Z,992.77
2017-03-05T04:49:39.670Z,992.74
2017-03-05T04:50:20.269Z,992.77
2017-03-05T04:51:00.904Z,992.75
2017-03-05T04:51:41.528Z,992.74
2017-03-05T04:52:22.192Z,992.73
2017-03-05T04:53:02.770Z,992.75
2017-03-05T04:53:43.415Z,992.76
2017-03-05T04:54:23.992Z,992.75
2017-03-05T04:55:04.609Z,992.8
2017-03-05T04:55:45.216Z,992.84
2017-03-05T04:56:25.873Z,992.87
2017-03-05T04:57:06.536Z,992.83
2017-03-05T04:57:47.130Z,992.88
2017-03-05T04:58:27.756Z,992.85
2017-03-05T04:59:08.361Z,992.87
2017-03-05T04:59:48.982Z,992.92
2017-03-05T05:00:29.627Z,992.92
2017-03-05T05:01:10.267Z,992.93
2017-03-05T05:01:50.878Z,992.95
2017-03-05T05:02:31.483Z,992.93
2017-03-05T05:03:12.112Z,992.97
2017-03-05T05:03:52.729Z,992.98
2017-03-05T05:04:33.367Z,992.96
2017-03-05T05:05:13.984Z,992.95
2017-03-05T05:05:54.567Z,992.96
2017-03-05T05:06:35.212Z,992.91
2017-03-05T05:07:15.848Z,992.95
2017-03-05T05:07:56.475Z,992.94
2017-03-05T05:08:37.121Z,992.93
2017-03-05T05:09:17.752Z,992.95
2017-03-05T05:09:58.375Z,992.95
2017-03-05T05:10:39.027Z,992.9
2017-03-05T05:11:19.619Z,992.93
2017-03-05T05:12:00.259Z,992.93
2017-03-05T05:12:40.894Z,992.93
2017-03-05T05:13:21.563Z,992.94
2017-03-05T05:14:02.196Z,992.93
2017-03-05T05:14:42.767Z,992.96
2017-03-05T05:15:23.383Z,992.96
2017-03-05T05:16:04.029Z,992.96
2017-03-05T05:16:44.644Z,993.02
2017-03-05T05:17:25.289Z,993.01
2017-03-05T05:18:05.992Z,993.01
2017-03-05T05:18:46.646Z,993.01
2017-03-05T05:19:27.262Z,993.02
2017-03-05T05:20:07.876Z,993
2017-03-05T05:20:48.539Z,993
2017-03-05T05:21:29.272Z,993.04
2017-03-05T05:22:09.901Z,993.05
2017-03-05T05:22:50.558Z,993.09
2017-03-05T05:23:31.162Z,993.09
2017-03-05T05:24:11.794Z,993.17
2017-03-05T05:24:52.437Z,993.12
2017-03-05T05:25:33.069Z,993.16
2017-03-05T05:26:13.715Z,993.18
2017-03-05T05:26:54.396Z,993.19
2017-03-05T05:27:35.050Z,993.18
2017-03-05T05:28:15.620Z,993.2
2017-03-05T05:28:56.239Z,993.23
2017-03-05T05:29:36.851Z,993.19
2017-03-05T05:30:17.461Z,993.19
2017-03-05T05:30:58.113Z,993.22
2017-03-05T05:31:38.716Z,993.17
2017-03-05T05:32:19.331Z,993.25
2017-03-05T05:32:59.966Z,993.3
2017-03-05T05:33:40.593Z,993.29
2017-03-05T05:34:21.195Z,993.27
2017-03-05T05:35:01.828Z,993.34
2017-03-05T05:35:42.462Z,993.33
2017-03-05T05:36:23.081Z,993.34
2017-03-05T05:37:03.795Z,993.31
2017-03-05T05:37:44.345Z,993.39
2017-03-05T05:38:25.023Z,993.35
2017-03-05T05:39:05.649Z,993.36
2017-03-05T05:39:46.252Z,993.35
2017-03-05T05:40:26.843Z,993.41
2017-03-05T05:41:07.488Z,993.37
2017-03-05T05:41:48.184Z,993.38
2017-03-05T05:42:28.826Z,993.36
2017-03-05T05:43:09.552Z,993.43
2017-03-05T05:43:50.151Z,993.38
2017-03-05T05:44:30.787Z,993.45
2017-03-05T05:45:11.425Z,993.46
2017-03-05T05:45:52.021Z,993.49
2017-03-05T05:46:32.623Z,993.48
2017-03-05T05:47:13.219Z,993.5
2017-03-05T05:47:53.805Z,993.5
2017-03-05T05:48:34.425Z,993.53
2017-03-05T05:49:15.044Z,993.55
2017-03-05T05:49:55.665Z,993.56
2017-03-05T05:50:36.270Z,993.54
2017-03-05T05:51:16.889Z,993.52
2017-03-05T05:51:57.482Z,993.56
2017-03-05T05:52:38.139Z,993.54
2017-03-05T05:53:18.752Z,993.56
2017-03-05T05:53:59.360Z,993.58
2017-03-05T05:54:39.995Z,993.59
2017-03-05T05:55:20.610Z,993.61
2017-03-05T05:56:01.189Z,993.59
2017-03-05T05:56:41.804Z,993.64
2017-03-05T05:57:22.394Z,993.59
2017-03-05T05:58:03.008Z,993.64
2017-03-05T05:58:43.634Z,993.62
2017-03-05T05:59:24.256Z,993.69
2017-03-05T06:00:04.871Z,993.62
2017-03-05T06:00:45.513Z,993.65
2017-03-05T06:01:26.104Z,993.62
2017-03-05T06:02:06.718Z,993.65
2017-03-05T06:02:47.319Z,993.69
2017-03-05T06:03:27.917Z,993.64
2017-03-05T06:04:08.510Z,993.65
2017-03-05T06:04:49.104Z,993.67
2017-03-05T06:05:29.705Z,993.71
2017-03-05T06:06:10.284Z,993.68
2017-03-05T06:06:50.870Z,993.71
2017-03-05T06:07:31.459Z,993.74
2017-03-05T06:08:12.046Z,993.76
2017-03-05T06:08:52.640Z,993.78
2017-03-05T06:09:33.221Z,993.79
2017-03-05T06:10:13.831Z,993.78
2017-03-05T06:10:54.422Z,993.82
2017-03-05T06:11:35.024Z,993.79
2017-03-05T06:12:15.785Z,993.85
2017-03-05T06:12:56.425Z,993.81
2017-03-05T06:13:37.069Z,993.84
2017-03-05T06:14:17.629Z,993.86
2017-03-05T06:14:58.235Z,993.88
2017-03-05T06:15:38.814Z,993.88
2017-03-05T06:16:19.420Z,993.87
2017-03-05T06:17:00.000Z,993.89
2017-03-05T06:17:40.597Z,993.86
2017-03-05T06:18:21.206Z,993.93
2017-03-05T06:19:01.788Z,993.87
2017-03-05T06:19:42.404Z,993.85
2017-03-05T06:20:23.003Z,993.87
2017-03-05T06:21:03.606Z,993.91
2017-03-05T06:21:44.218Z,993.9
2017-03-05T06:22:24.813Z,993.92
2017-03-05T06:23:05.396Z,993.96
2017-03-05T06:23:45.975Z,993.93
2017-03-05T06:24:26.609Z,993.94
2017-03-05T06:25:07.217Z,993.98
2017-03-05T06:25:47.815Z,993.96
2017-03-05T06:26:28.417Z,993.95
2017-03-05T06:27:09.017Z,993.94
2017-03-05T06:27:51.830Z,993.97
2017-03-05T06:28:34.371Z,994
2017-03-05T06:29:16.148Z,994.02
2017-03-05T06:29:58.223Z,994.03
2017-03-05T06:30:38.828Z,994.05
2017-03-05T06:31:20.019Z,994.06
2017-03-05T06:32:00.607Z,994.1
2017-03-05T06:32:41.206Z,994.11
2017-03-05T06:33:21.818Z,994.09
2017-03-05T06:34:02.393Z,994.08
2017-03-05T06:34:43.940Z,994.15
2017-03-05T06:35:24.650Z,994.13
2017-03-05T06:36:05.587Z,994.15
2017-03-05T06:36:46.196Z,994.19
2017-03-05T06:37:26.923Z,994.24
2017-03-05T06:38:07.522Z,994.23
2017-03-05T06:38:48.108Z,994.22
2017-03-05T06:39:30.943Z,994.29
2017-03-05T06:40:15.116Z,994.25
2017-03-05T06:40:55.700Z,994.3
2017-03-05T06:41:36.327Z,994.31
2017-03-05T06:42:17.026Z,994.34
2017-03-05T06:42:57.619Z,994.35
2017-03-05T06:43:38.200Z,994.38
2017-03-05T06:44:18.779Z,994.31
2017-03-05T06:44:59.399Z,994.35
2017-03-05T06:45:39.982Z,994.39
2017-03-05T06:46:20.573Z,994.46
2017-03-05T06:47:01.171Z,994.4
2017-03-05T06:47:41.785Z,994.43
2017-03-05T06:48:22.394Z,994.4
2017-03-05T06:49:02.999Z,994.45
2017-03-05T06:49:43.632Z,994.44
2017-03-05T06:50:24.229Z,994.48
2017-03-05T06:51:04.822Z,994.5
2017-03-05T06:51:45.419Z,994.5
2017-03-05T06:52:26.026Z,994.41
2017-03-05T06:53:06.614Z,994.48
2017-03-05T06:53:47.185Z,994.47
2017-03-05T06:54:27.780Z,994.43
2017-03-05T06:55:08.371Z,994.48
2017-03-05T06:55:48.986Z,994.47
2017-03-05T06:56:29.583Z,994.45
2017-03-05T06:57:10.179Z,994.47
2017-03-05T06:57:50.754Z,994.45
2017-03-05T06:58:31.468Z,994.48
2017-03-05T06:59:12.049Z,994.46
2017-03-05T06:59:52.686Z,994.49
2017-03-05T07:00:33.292Z,994.52
2017-03-05T07:01:13.911Z,994.48
2017-03-05T07:01:54.512Z,994.55
2017-03-05T07:02:35.621Z,994.56
2017-03-05T07:03:16.207Z,994.57
2017-03-05T07:03:56.818Z,994.57
2017-03-05T07:04:38.089Z,994.59
2017-03-05T07:05:18.684Z,994.61
2017-03-05T07:05:59.300Z,994.61
2017-03-05T07:06:39.886Z,994.63
2017-03-05T07:07:20.505Z,994.64
2017-03-05T07:08:01.106Z,994.64
2017-03-05T07:08:41.721Z,994.71
2017-03-05T07:09:22.404Z,994.75
2017-03-05T07:10:02.971Z,994.7
2017-03-05T07:10:44.106Z,994.7
2017-03-05T07:11:24.701Z,994.73
2017-03-05T07:12:05.330Z,994.75
2017-03-05T07:12:45.935Z,994.79
2017-03-05T07:13:26.541Z,994.86
2017-03-05T07:14:07.181Z,994.88
2017-03-05T07:14:47.833Z,994.9
2017-03-05T07:15:28.472Z,994.92
2017-03-05T07:16:09.126Z,994.92
2017-03-05T07:16:49.756Z,994.94
2017-03-05T07:17:30.414Z,994.98
2017-03-05T07:18:11.000Z,995.01
2017-03-05T07:18:51.605Z,994.97
2017-03-05T07:19:32.222Z,994.95
2017-03-05T07:20:13.331Z,995.03
2017-03-05T07:20:55.680Z,994.97
2017-03-05T07:21:37.678Z,995.01
2017-03-05T07:22:18.303Z,995.04
2017-03-05T07:22:58.946Z,995.09
2017-03-05T07:23:39.674Z,995.04
2017-03-05T07:24:20.316Z,995.09
2017-03-05T07:25:00.904Z,995.08
2017-03-05T07:25:41.558Z,995.12
2017-03-05T07:26:22.172Z,995.1
2017-03-05T07:27:02.785Z,995.15
2017-03-05T07:27:43.396Z,995.13
2017-03-05T07:28:24.018Z,995.16
2017-03-05T07:29:04.666Z,995.11
2017-03-05T07:29:45.330Z,995.16
2017-03-05T07:30:26.016Z,995.15
2017-03-05T07:31:06.617Z,995.14
2017-03-05T07:31:47.218Z,995.13
2017-03-05T07:32:27.830Z,995.17
2017-03-05T07:33:08.469Z,995.11
2017-03-05T07:33:49.096Z,995.18
2017-03-05T07:34:29.710Z,995.19
2017-03-05T07:35:10.300Z,995.21
2017-03-05T07:35:50.911Z,995.18
2017-03-05T07:36:31.565Z,995.21
2017-03-05T07:37:12.160Z,995.23
2017-03-05T07:37:52.836Z,995.21
2017-03-05T07:38:33.424Z,995.18
2017-03-05T07:39:14.043Z,995.25
2017-03-05T07:39:54.691Z,995.22
2017-03-05T07:40:35.278Z,995.26
2017-03-05T07:41:15.928Z,995.25
2017-03-05T07:41:56.518Z,995.25
2017-03-05T07:42:37.139Z,995.26
2017-03-05T07:43:17.753Z,995.32
2017-03-05T07:43:58.402Z,995.34
2017-03-05T07:44:39.009Z,995.3
2017-03-05T07:45:19.637Z,995.35
2017-03-05T07:46:00.276Z,995.38
2017-03-05T07:46:40.845Z,995.36
2017-03-05T07:47:21.464Z,995.32
2017-03-05T07:48:02.087Z,995.39
2017-03-05T07:48:42.700Z,995.44
2017-03-05T07:49:23.343Z,995.37
2017-03-05T07:50:03.904Z,995.38
2017-03-05T07:50:44.523Z,995.41
2017-03-05T07:51:25.316Z,995.44
2017-03-05T07:52:05.950Z,995.44
2017-03-05T07:52:46.587Z,995.46
2017-03-05T07:53:27.219Z,995.44
2017-03-05T07:54:07.848Z,995.46
2017-03-05T07:54:48.477Z,995.46
2017-03-05T07:55:29.094Z,995.5
2017-03-05T07:56:09.728Z,995.47
2017-03-05T07:56:50.349Z,995.42
2017-03-05T07:57:30.935Z,995.47
2017-03-05T07:58:11.527Z,995.5
2017-03-05T07:58:52.124Z,995.45
2017-03-05T07:59:32.734Z,995.47
2017-03-05T08:00:13.329Z,995.48
2017-03-05T08:00:54.031Z,995.5
2017-03-05T08:01:34.641Z,995.51
2017-03-05T08:02:15.278Z,995.48
2017-03-05T08:02:55.883Z,995.5
2017-03-05T08:03:36.484Z,995.58
2017-03-05T08:04:17.093Z,995.56
2017-03-05T08:04:57.710Z,995.53
2017-03-05T08:05:38.325Z,995.58
2017-03-05T08:06:19.040Z,995.59
2017-03-05T08:06:59.630Z,995.57
2017-03-05T08:07:40.233Z,995.6
2017-03-05T08:08:20.858Z,995.6
2017-03-05T08:09:01.599Z,995.61
2017-03-05T08:09:42.219Z,995.61
2017-03-05T08:10:22.814Z,995.69
2017-03-05T08:11:03.427Z,995.65
2017-03-05T08:11:44.015Z,995.66
2017-03-05T08:12:24.627Z,995.68
2017-03-05T08:13:05.205Z,995.71
2017-03-05T08:13:45.786Z,995.7
2017-03-05T08:14:26.364Z,995.69
2017-03-05T08:15:06.937Z,995.68
2017-03-05T08:15:47.534Z,995.78
2017-03-05T08:16:28.184Z,995.73
2017-03-05T08:17:08.766Z,995.79
2017-03-05T08:17:49.331Z,995.77
2017-03-05T08:18:29.938Z,995.72
2017-03-05T08:19:10.565Z,995.83
2017-03-05T08:19:51.174Z,995.73
2017-03-05T08:20:31.761Z,995.77
2017-03-05T08:21:12.351Z,995.73
2017-03-05T08:21:53.190Z,995.73
2017-03-05T08:22:33.786Z,995.77
2017-03-05T08:23:14.375Z,995.75
2017-03-05T08:23:54.962Z,995.82
2017-03-05T08:24:35.610Z,995.78
2017-03-05T08:25:16.168Z,995.8
2017-03-05T08:25:56.753Z,995.77
2017-03-05T08:26:37.350Z,995.78
2017-03-05T08:27:17.931Z,995.78
2017-03-05T08:27:58.563Z,995.79
2017-03-05T08:28:39.154Z,995.74